createdAt,value
2022-10-11T00:00:46.366Z,9.41
2022-10-11T00:03:31.720Z,9.37
2022-10-11T00:05:59.941Z,9.33
2022-10-11T00:08:27.914Z,9.31
2022-10-11T00:10:58.139Z,9.29
2022-10-11T00:13:27.116Z,9.27
2022-10-11T00:15:55.140Z,9.25
2022-10-11T00:18:23.819Z,9.22
2022-10-11T00:21:04.832Z,9.20
2022-10-11T00:23:33.336Z,9.17
2022-10-11T00:26:04.129Z,9.14
2022-10-11T00:28:33.134Z,9.12
2022-10-11T00:31:01.487Z,9.11
2022-10-11T00:33:29.508Z,9.10
2022-10-11T00:36:00.252Z,9.08
2022-10-11T00:38:31.598Z,9.06
2022-10-11T00:41:00.689Z,9.05
2022-10-11T00:43:30.867Z,9.04
2022-10-11T00:46:00.504Z,9.03
2022-10-11T00:48:50.899Z,9.01
2022-10-11T00:51:26.174Z,8.97
2022-10-11T00:53:54.215Z,8.97
2022-10-11T00:56:31.464Z,8.95
2022-10-11T00:59:02.687Z,8.94
2022-10-11T01:01:31.153Z,8.92
2022-10-11T01:03:59.289Z,8.94
2022-10-11T01:06:27.587Z,8.97
2022-10-11T01:08:56.484Z,8.99
2022-10-11T01:11:27.624Z,9.01
2022-10-11T01:14:25.088Z,9.03
2022-10-11T01:17:26.441Z,9.04
2022-10-11T01:20:03.006Z,9.07
2022-10-11T01:22:51.151Z,9.12
2022-10-11T01:25:53.187Z,9.14
2022-10-11T01:28:42.721Z,9.14
2022-10-11T01:31:45.683Z,9.18
2022-10-11T01:34:31.881Z,9.23
2022-10-11T01:37:11.318Z,9.21
2022-10-11T01:39:46.454Z,9.18
2022-10-11T01:42:16.164Z,9.15
2022-10-11T01:44:47.820Z,9.15
2022-10-11T01:47:23.566Z,9.17
2022-10-11T01:50:00.408Z,9.16
2022-10-11T01:52:32.363Z,9.11
2022-10-11T01:55:24.346Z,9.07
2022-10-11T01:57:52.185Z,9.02
2022-10-11T02:00:23.706Z,8.98
2022-10-11T02:02:57.367Z,8.94
2022-10-11T02:06:10.088Z,8.89
2022-10-11T02:09:12.466Z,8.79
2022-10-11T02:11:42.186Z,8.70
2022-10-11T02:14:23.356Z,8.64
2022-10-11T02:17:04.228Z,8.58
2022-10-11T02:19:38.755Z,8.54
2022-10-11T02:22:13.370Z,8.51
2022-10-11T02:24:45.646Z,8.48
2022-10-11T02:27:15.596Z,8.44
2022-10-11T02:29:45.778Z,8.39
2022-10-11T02:32:15.826Z,8.36
2022-10-11T02:34:50.795Z,8.33
2022-10-11T02:37:37.446Z,8.30
2022-10-11T02:40:25.793Z,8.27
2022-10-11T02:43:09.016Z,8.24
2022-10-11T02:45:44.866Z,8.22
2022-10-11T02:48:12.926Z,8.18
2022-10-11T02:50:42.227Z,8.15
2022-10-11T02:53:10.317Z,8.12
2022-10-11T02:55:38.282Z,8.11
2022-10-11T02:58:06.142Z,8.08
2022-10-11T03:00:34.101Z,8.05
2022-10-11T03:03:02.058Z,8.01
2022-10-11T03:05:29.953Z,7.99
2022-10-11T03:07:57.920Z,7.97
2022-10-11T03:10:25.767Z,7.95
2022-10-11T03:12:53.765Z,7.93
2022-10-11T03:15:21.729Z,7.90
2022-10-11T03:17:49.698Z,7.89
2022-10-11T03:20:17.664Z,7.90
2022-10-11T03:22:45.642Z,7.91
2022-10-11T03:25:13.612Z,7.90
2022-10-11T03:27:41.783Z,7.92
2022-10-11T03:30:13.335Z,7.93
2022-10-11T03:32:44.682Z,7.98
2022-10-11T03:35:12.755Z,8.00
2022-10-11T03:37:40.829Z,8.01
2022-10-11T03:40:09.821Z,8.03
2022-10-11T03:42:38.729Z,8.06
2022-10-11T03:45:09.050Z,8.12
2022-10-11T03:47:39.059Z,8.14
2022-10-11T03:50:08.838Z,8.15
2022-10-11T03:52:36.761Z,8.15
2022-10-11T03:55:05.676Z,8.13
2022-10-11T03:57:33.722Z,8.12
2022-10-11T04:00:01.880Z,8.11
2022-10-11T04:02:29.842Z,8.06
2022-10-11T04:04:57.811Z,8.00
2022-10-11T04:07:25.754Z,7.94
2022-10-11T04:09:54.055Z,7.92
2022-10-11T04:12:22.023Z,7.90
2022-10-11T04:14:49.990Z,7.86
2022-10-11T04:17:18.273Z,7.81
2022-10-11T04:19:46.444Z,7.76
2022-10-11T04:22:14.307Z,7.73
2022-10-11T04:24:42.283Z,7.67
2022-10-11T04:27:10.559Z,7.62
2022-10-11T04:29:38.470Z,7.58
2022-10-11T04:32:06.631Z,7.56
2022-10-11T04:34:34.571Z,7.51
2022-10-11T04:37:02.542Z,7.47
2022-10-11T04:39:30.447Z,7.43
2022-10-11T04:41:58.582Z,7.40
2022-10-11T04:44:26.859Z,7.38
2022-10-11T04:46:54.764Z,7.35
2022-10-11T04:49:22.894Z,7.33
2022-10-11T04:51:51.046Z,7.29
2022-10-11T04:54:19.039Z,7.31
2022-10-11T04:56:47.011Z,7.32
2022-10-11T04:59:15.181Z,7.34
2022-10-11T05:01:43.219Z,7.35
2022-10-11T05:04:11.119Z,7.36
2022-10-11T05:06:39.377Z,7.37
2022-10-11T05:09:07.397Z,7.38
2022-10-11T05:11:35.654Z,7.37
2022-10-11T05:14:03.830Z,7.37
2022-10-11T05:16:31.895Z,7.36
2022-10-11T05:18:59.858Z,7.36
2022-10-11T05:21:29.568Z,7.36
2022-10-11T05:23:58.363Z,7.40
2022-10-11T05:26:28.220Z,7.42
2022-10-11T05:28:56.696Z,7.46
2022-10-11T05:31:24.934Z,7.53
2022-10-11T05:33:52.885Z,7.60
2022-10-11T05:36:21.090Z,7.65
2022-10-11T05:38:49.042Z,7.71
2022-10-11T05:41:17.113Z,7.78
2022-10-11T05:43:46.015Z,7.85
2022-10-11T05:46:14.495Z,7.95
2022-10-11T05:48:42.453Z,8.07
2022-10-11T05:51:12.092Z,8.18
2022-10-11T05:53:40.131Z,8.30
2022-10-11T05:56:22.336Z,8.38
2022-10-11T05:58:51.086Z,8.51
2022-10-11T06:01:24.995Z,8.64
2022-10-11T06:03:53.393Z,8.72
2022-10-11T06:06:22.100Z,8.80
2022-10-11T06:08:50.586Z,8.93
2022-10-11T06:11:22.128Z,9.05
2022-10-11T06:13:50.315Z,9.15
2022-10-11T06:16:18.169Z,9.26
2022-10-11T06:18:46.251Z,9.32
2022-10-11T06:21:15.653Z,9.38
2022-10-11T06:23:44.643Z,9.46
2022-10-11T06:26:12.625Z,9.52
2022-10-11T06:28:40.576Z,9.59
2022-10-11T06:31:09.370Z,9.68
2022-10-11T06:33:37.868Z,9.75
2022-10-11T06:36:09.859Z,9.81
2022-10-11T06:38:43.835Z,9.86
2022-10-11T06:41:14.327Z,9.95
2022-10-11T06:43:42.276Z,10.05
2022-10-11T06:46:11.223Z,10.13
2022-10-11T06:48:41.690Z,10.20
2022-10-11T06:51:14.832Z,10.27
2022-10-11T06:53:43.420Z,10.33
2022-10-11T06:56:13.151Z,10.38
2022-10-11T06:58:41.101Z,10.44
2022-10-11T07:01:11.648Z,10.49
2022-10-11T07:03:39.865Z,10.57
2022-10-11T07:06:13.558Z,10.65
2022-10-11T07:08:42.102Z,10.75
2022-10-11T07:11:29.824Z,10.84
2022-10-11T07:14:00.562Z,10.94
2022-10-11T07:16:29.349Z,11.03
2022-10-11T07:19:00.935Z,11.11
2022-10-11T07:21:31.460Z,11.20
2022-10-11T07:24:00.181Z,11.29
2022-10-11T07:26:32.503Z,11.38
2022-10-11T07:29:04.955Z,11.47
2022-10-11T07:31:33.347Z,11.55
2022-10-11T07:34:01.327Z,11.60
2022-10-11T07:36:29.265Z,11.66
2022-10-11T07:38:57.134Z,11.75
2022-10-11T07:41:25.043Z,11.86
2022-10-11T07:43:54.826Z,11.98
2022-10-11T07:46:23.000Z,12.12
2022-10-11T07:48:50.969Z,12.26
2022-10-11T07:51:22.122Z,12.39
2022-10-11T07:53:52.717Z,12.51
2022-10-11T07:56:23.893Z,12.63
2022-10-11T07:58:57.475Z,12.74
2022-10-11T08:01:27.234Z,12.85
2022-10-11T08:03:56.972Z,12.95
2022-10-11T08:06:29.442Z,13.06
2022-10-11T08:08:57.567Z,13.16
2022-10-11T08:11:27.373Z,13.21
2022-10-11T08:13:55.962Z,13.29
2022-10-11T08:16:25.272Z,13.36
2022-10-11T08:18:55.481Z,13.45
2022-10-11T08:21:23.454Z,13.54
2022-10-11T08:23:51.426Z,13.63
2022-10-11T08:26:19.387Z,13.72
2022-10-11T08:28:47.455Z,13.82
2022-10-11T08:31:16.615Z,13.98
2022-10-11T08:33:44.940Z,14.19
2022-10-11T08:36:13.609Z,14.39
2022-10-11T08:38:42.242Z,14.58
2022-10-11T08:41:26.870Z,14.76
2022-10-11T08:43:58.112Z,14.96
2022-10-11T08:46:30.992Z,15.19
2022-10-11T08:49:00.706Z,15.38
2022-10-11T08:51:36.051Z,15.53
2022-10-11T08:54:12.690Z,15.72
2022-10-11T08:56:41.916Z,15.96
2022-10-11T08:59:12.967Z,16.19
2022-10-11T09:02:03.459Z,16.42
2022-10-11T09:04:32.555Z,16.68
2022-10-11T09:07:16.035Z,16.89
2022-10-11T09:09:56.143Z,17.08
2022-10-11T09:12:41.988Z,17.28
2022-10-11T09:15:15.884Z,17.52
2022-10-11T09:18:09.822Z,17.77
2022-10-11T09:21:08.443Z,18.06
2022-10-11T09:24:02.594Z,18.30
2022-10-11T09:26:52.488Z,18.44
2022-10-11T09:29:42.577Z,18.50
2022-10-11T09:32:17.397Z,18.50
2022-10-11T09:34:45.871Z,18.51
2022-10-11T09:37:30.742Z,18.55
2022-10-11T09:40:17.143Z,18.70
2022-10-11T09:42:45.019Z,18.94
2022-10-11T09:45:19.169Z,19.10
2022-10-11T09:47:49.430Z,19.13
2022-10-11T09:50:25.784Z,18.98
2022-10-11T09:52:56.290Z,18.82
2022-10-11T09:55:52.957Z,18.60
2022-10-11T09:58:23.823Z,18.38
2022-10-11T10:01:05.122Z,18.24
2022-10-11T10:03:44.638Z,18.01
2022-10-11T10:06:28.584Z,17.73
2022-10-11T10:09:21.240Z,17.65
2022-10-11T10:11:49.720Z,17.53
2022-10-11T10:14:27.964Z,17.47
2022-10-11T10:17:06.036Z,17.43
2022-10-11T10:19:44.734Z,17.40
2022-10-11T10:22:34.618Z,17.34
2022-10-11T10:25:08.152Z,17.26
2022-10-11T10:27:36.023Z,17.19
2022-10-11T10:30:13.394Z,16.98
2022-10-11T10:32:50.480Z,16.88
2022-10-11T10:35:39.082Z,16.74
2022-10-11T10:38:16.519Z,16.70
2022-10-11T10:40:49.810Z,16.69
2022-10-11T10:43:24.957Z,16.65
2022-10-11T10:46:11.561Z,16.68
2022-10-11T10:52:06.001Z,16.71
2022-10-11T10:54:56.607Z,16.77
2022-10-11T10:57:38.471Z,16.75
2022-10-11T11:00:23.691Z,16.68
2022-10-11T11:03:10.179Z,16.55
2022-10-11T11:05:56.175Z,16.58
2022-10-11T11:08:53.951Z,16.62
2022-10-11T11:11:41.715Z,16.66
2022-10-11T11:14:38.310Z,16.74
2022-10-11T11:17:25.092Z,16.86
2022-10-11T11:20:20.434Z,16.97
2022-10-11T11:23:06.795Z,17.08
2022-10-11T11:25:49.542Z,17.09
2022-10-11T11:28:39.131Z,17.08
2022-10-11T11:31:25.426Z,17.17
2022-10-11T11:33:59.372Z,17.24
2022-10-11T11:36:46.321Z,17.35
2022-10-11T11:39:29.204Z,17.45
2022-10-11T11:42:36.570Z,17.55
2022-10-11T11:45:17.741Z,17.48
2022-10-11T11:47:54.796Z,17.48
2022-10-11T11:50:27.334Z,17.49
2022-10-11T11:53:05.146Z,17.55
2022-10-11T11:55:42.392Z,17.59
2022-10-11T11:58:27.924Z,17.65
2022-10-11T12:01:05.433Z,17.72
2022-10-11T12:03:41.720Z,17.74
2022-10-11T12:06:26.377Z,17.72
2022-10-11T12:09:06.235Z,17.75
2022-10-11T12:11:36.973Z,17.76
2022-10-11T12:14:38.738Z,17.81
2022-10-11T12:17:18.297Z,17.90
2022-10-11T12:20:01.811Z,18.00
2022-10-11T12:22:29.787Z,18.18
2022-10-11T12:25:22.219Z,18.41
2022-10-11T12:27:56.648Z,18.86
2022-10-11T12:30:42.836Z,19.30
2022-10-11T12:33:24.696Z,19.85
2022-10-11T12:35:55.671Z,20.40
2022-10-11T12:38:29.578Z,20.88
2022-10-11T12:41:00.734Z,21.38
2022-10-11T12:43:36.320Z,21.84
2022-10-11T12:46:31.284Z,22.17
2022-10-11T12:49:06.827Z,22.38
2022-10-11T12:52:01.174Z,22.41
2022-10-11T12:54:47.930Z,22.32
2022-10-11T12:57:46.291Z,22.26
2022-10-11T13:00:20.749Z,22.17
2022-10-11T13:02:49.613Z,22.19
2022-10-11T13:05:45.079Z,22.14
2022-10-11T13:08:19.147Z,22.01
2022-10-11T13:10:48.240Z,22.08
2022-10-11T13:13:22.964Z,22.33
2022-10-11T13:15:54.417Z,22.62
2022-10-11T13:18:25.836Z,22.81
2022-10-11T13:20:54.858Z,23.02
2022-10-11T13:23:35.196Z,23.09
2022-10-11T13:26:03.376Z,23.01
2022-10-11T13:28:36.308Z,22.86
2022-10-11T13:31:06.009Z,22.72
2022-10-11T13:33:39.769Z,22.64
2022-10-11T13:36:15.164Z,22.67
2022-10-11T13:38:52.827Z,22.85
2022-10-11T13:41:22.031Z,23.19
2022-10-11T13:43:50.614Z,23.65
2022-10-11T13:46:23.050Z,24.02
2022-10-11T13:49:20.238Z,24.52
2022-10-11T13:51:58.520Z,24.95
2022-10-11T13:55:04.520Z,25.28
2022-10-11T13:57:41.538Z,25.70
2022-10-11T14:00:15.310Z,25.92
2022-10-11T14:02:52.183Z,25.89
2022-10-11T14:05:30.630Z,25.83
2022-10-11T14:08:22.225Z,25.94
2022-10-11T14:10:56.390Z,26.07
2022-10-11T14:13:31.249Z,25.89
2022-10-11T14:16:13.270Z,25.54
2022-10-11T14:18:50.247Z,25.07
2022-10-11T14:21:25.995Z,24.58
2022-10-11T14:23:57.081Z,24.03
2022-10-11T14:26:26.933Z,23.50
2022-10-11T14:29:00.733Z,23.06
2022-10-11T14:31:30.970Z,22.57
2022-10-11T14:33:59.527Z,22.19
2022-10-11T14:36:27.637Z,21.86
2022-10-11T14:38:55.612Z,21.56
2022-10-11T14:41:23.889Z,21.27
2022-10-11T14:43:51.960Z,21.01
2022-10-11T14:46:23.507Z,20.74
2022-10-11T14:48:56.598Z,20.47
2022-10-11T14:51:30.387Z,20.21
2022-10-11T14:53:59.230Z,19.96
2022-10-11T14:56:27.268Z,19.73
2022-10-11T14:58:55.234Z,19.49
2022-10-11T15:01:23.772Z,19.25
2022-10-11T15:03:51.893Z,19.02
2022-10-11T15:06:23.243Z,18.83
2022-10-11T15:08:51.503Z,18.61
2022-10-11T15:11:22.126Z,18.43
2022-10-11T15:13:50.833Z,18.27
2022-10-11T15:16:20.956Z,18.13
2022-10-11T15:18:52.051Z,18.02
2022-10-11T15:21:26.368Z,17.87
2022-10-11T15:23:56.022Z,17.69
2022-10-11T15:26:29.387Z,17.52
2022-10-11T15:28:57.620Z,17.37
2022-10-11T15:31:25.881Z,17.23
2022-10-11T15:33:54.105Z,17.10
2022-10-11T15:36:22.760Z,16.97
2022-10-11T15:38:50.705Z,16.81
2022-10-11T15:41:20.316Z,16.66
2022-10-11T15:43:49.569Z,16.52
2022-10-11T15:46:22.508Z,16.40
2022-10-11T15:48:52.094Z,16.27
2022-10-11T15:51:20.072Z,16.14
2022-10-11T15:53:48.041Z,16.01
2022-10-11T15:56:18.981Z,15.91
2022-10-11T15:58:46.954Z,15.79
2022-10-11T16:01:19.470Z,15.70
2022-10-11T16:03:49.953Z,15.61
2022-10-11T16:06:18.903Z,15.51
2022-10-11T16:08:47.910Z,15.42
2022-10-11T16:11:16.015Z,15.32
2022-10-11T16:13:45.311Z,15.23
2022-10-11T16:16:13.279Z,15.17
2022-10-11T16:18:41.188Z,15.10
2022-10-11T16:21:11.985Z,15.02
2022-10-11T16:23:40.114Z,14.95
2022-10-11T16:26:12.127Z,14.89
2022-10-11T16:28:40.311Z,14.82
2022-10-11T16:31:16.835Z,14.77
2022-10-11T16:33:46.283Z,14.74
2022-10-11T16:36:36.905Z,14.67
2022-10-11T16:39:18.152Z,14.58
2022-10-11T16:41:47.561Z,14.51
2022-10-11T16:44:21.187Z,14.45
2022-10-11T16:46:49.253Z,14.38
2022-10-11T16:49:23.225Z,14.32
2022-10-11T16:51:53.262Z,14.25
2022-10-11T16:54:22.050Z,14.15
2022-10-11T16:56:50.529Z,14.09
2022-10-11T16:59:18.702Z,14.02
2022-10-11T17:01:46.879Z,13.93
2022-10-11T17:04:15.354Z,13.87
2022-10-11T17:06:44.147Z,13.82
2022-10-11T17:09:12.999Z,13.78
2022-10-11T17:11:41.113Z,13.74
2022-10-11T17:14:10.679Z,13.73
2022-10-11T17:16:39.713Z,13.71
2022-10-11T17:19:15.989Z,13.68
2022-10-11T17:21:43.839Z,13.65
2022-10-11T17:24:11.815Z,13.57
2022-10-11T17:26:39.981Z,13.49
2022-10-11T17:29:07.954Z,13.42
2022-10-11T17:31:38.588Z,13.37
2022-10-11T17:34:06.659Z,13.32
2022-10-11T17:36:34.734Z,13.30
2022-10-11T17:39:09.674Z,13.28
2022-10-11T17:41:38.351Z,13.27
2022-10-11T17:44:06.834Z,13.29
2022-10-11T17:46:35.011Z,13.28
2022-10-11T17:49:06.187Z,13.25
2022-10-11T17:51:36.148Z,13.24
2022-10-11T17:54:04.886Z,13.25
2022-10-11T17:56:37.655Z,13.27
2022-10-11T17:59:07.956Z,13.31
2022-10-11T18:01:36.393Z,13.32
2022-10-11T18:04:06.307Z,13.32
2022-10-11T18:06:39.669Z,13.31
2022-10-11T18:09:08.341Z,13.29
2022-10-11T18:11:36.424Z,13.28
2022-10-11T18:14:05.314Z,13.24
2022-10-11T18:16:34.640Z,13.20
2022-10-11T18:19:05.031Z,13.17
2022-10-11T18:21:34.866Z,13.12
2022-10-11T18:24:05.476Z,13.06
2022-10-11T18:26:34.509Z,13.01
2022-10-11T18:29:02.951Z,12.94
2022-10-11T18:31:33.910Z,12.88
2022-10-11T18:34:03.207Z,12.81
2022-10-11T18:36:31.975Z,12.73
2022-10-11T18:39:05.762Z,12.68
2022-10-11T18:41:35.492Z,12.63
2022-10-11T18:44:07.003Z,12.58
2022-10-11T18:46:35.845Z,12.55
2022-10-11T18:49:04.413Z,12.52
2022-10-11T18:51:38.323Z,12.50
2022-10-11T18:54:07.798Z,12.45
2022-10-11T18:56:37.226Z,12.40
2022-10-11T18:59:06.752Z,12.35
2022-10-11T19:01:38.348Z,12.28
2022-10-11T19:04:10.751Z,12.25
2022-10-11T19:06:43.150Z,12.21
2022-10-11T19:09:14.246Z,12.16
2022-10-11T19:11:42.263Z,12.13
2022-10-11T19:14:14.641Z,12.09
2022-10-11T19:16:51.487Z,12.07
2022-10-11T19:19:21.787Z,12.06
2022-10-11T19:21:50.617Z,12.05
2022-10-11T19:24:21.246Z,12.04
2022-10-11T19:26:49.828Z,12.03
2022-10-11T19:29:20.109Z,12.00
2022-10-11T19:31:59.497Z,11.97
2022-10-11T19:34:28.792Z,11.95
2022-10-11T19:36:57.327Z,11.95
2022-10-11T19:39:25.757Z,11.95
2022-10-11T19:41:54.030Z,11.94
2022-10-11T19:44:22.004Z,11.92
2022-10-11T19:46:52.280Z,11.93
2022-10-11T19:49:24.928Z,11.94
2022-10-11T19:51:55.421Z,11.95
2022-10-11T19:54:24.334Z,11.97
2022-10-11T19:56:52.828Z,11.98
2022-10-11T19:59:20.886Z,11.97
2022-10-11T20:01:52.739Z,11.95
2022-10-11T20:07:10.268Z,11.93
2022-10-11T20:09:38.260Z,11.94
2022-10-11T20:12:06.731Z,11.92
2022-10-11T20:14:34.907Z,11.93
2022-10-11T20:17:03.078Z,11.95
2022-10-11T20:19:31.730Z,11.96
2022-10-11T20:22:00.929Z,11.92
2022-10-11T20:24:33.583Z,11.89
2022-10-11T20:27:04.646Z,11.87
2022-10-11T20:29:32.964Z,11.81
2022-10-11T20:32:00.943Z,11.74
2022-10-11T20:34:29.028Z,11.67
2022-10-11T20:36:57.288Z,11.61
2022-10-11T20:39:25.464Z,11.57
2022-10-11T20:41:53.601Z,11.53
2022-10-11T20:44:21.523Z,11.47
2022-10-11T20:46:49.576Z,11.43
2022-10-11T20:49:20.031Z,11.40
2022-10-11T20:51:48.786Z,11.37
2022-10-11T20:54:16.862Z,11.34
2022-10-11T20:56:44.829Z,11.28
2022-10-11T20:59:12.801Z,11.24
2022-10-11T21:01:41.651Z,11.18
2022-10-11T21:04:18.076Z,11.12
2022-10-11T21:06:46.541Z,11.08
2022-10-11T21:09:16.658Z,11.04
2022-10-11T21:11:45.447Z,11.03
2022-10-11T21:14:14.137Z,11.03
2022-10-11T21:16:42.205Z,11.01
2022-10-11T21:19:14.191Z,10.98
2022-10-11T21:21:43.272Z,10.95
2022-10-11T21:24:11.150Z,10.93
2022-10-11T21:26:38.993Z,10.91
2022-10-11T21:29:07.676Z,10.91
2022-10-11T21:31:35.726Z,10.92
2022-10-11T21:34:05.274Z,10.93
2022-10-11T21:36:33.840Z,10.93
2022-10-11T21:39:01.915Z,10.95
2022-10-11T21:41:34.183Z,10.96
2022-10-11T21:44:02.158Z,10.98
2022-10-11T21:47:01.120Z,11.02
2022-10-11T21:49:20.312Z,11.06
2022-10-11T21:51:48.494Z,11.10
2022-10-11T21:54:17.068Z,11.13
2022-10-11T21:56:45.085Z,11.14
2022-10-11T21:59:12.992Z,11.13
2022-10-11T22:01:41.951Z,11.12
2022-10-11T22:04:12.127Z,11.10
2022-10-11T22:06:40.498Z,11.07
2022-10-11T22:09:09.396Z,11.03
2022-10-11T22:11:37.877Z,11.00
2022-10-11T22:14:06.222Z,10.98
2022-10-11T22:16:35.556Z,10.95
2022-10-11T22:19:04.447Z,10.90
2022-10-11T22:21:32.617Z,10.87
2022-10-11T22:24:00.590Z,10.85
2022-10-11T22:26:31.546Z,10.82
2022-10-11T22:29:00.553Z,10.79
2022-10-11T22:31:30.029Z,10.75
2022-10-11T22:34:00.242Z,10.72
2022-10-11T22:36:33.641Z,10.68
2022-10-11T22:39:02.942Z,10.65
2022-10-11T22:41:30.789Z,10.61
2022-10-11T22:43:58.676Z,10.56
2022-10-11T22:46:26.645Z,10.51
2022-10-11T22:48:54.555Z,10.45
2022-10-11T22:51:22.455Z,10.42
2022-10-11T22:53:50.456Z,10.40
2022-10-11T22:56:18.419Z,10.37
2022-10-11T22:58:46.492Z,10.33
2022-10-11T23:01:16.382Z,10.30
2022-10-11T23:03:49.460Z,10.26
2022-10-11T23:06:18.188Z,10.20
2022-10-11T23:08:46.155Z,10.15
2022-10-11T23:11:14.122Z,10.10
2022-10-11T23:13:42.091Z,10.06
2022-10-11T23:16:12.217Z,10.02
2022-10-11T23:18:40.136Z,10.00
2022-10-11T23:21:08.624Z,9.98
2022-10-11T23:23:39.632Z,9.93
2022-10-11T23:26:11.681Z,9.91
2022-10-11T23:28:40.039Z,9.89
2022-10-11T23:31:13.731Z,9.89
2022-10-11T23:33:41.692Z,9.85
2022-10-11T23:36:17.622Z,9.83
2022-10-11T23:38:45.718Z,9.82
2022-10-11T23:41:13.616Z,9.83
2022-10-11T23:43:41.810Z,9.82
2022-10-11T23:46:09.775Z,9.83
2022-10-11T23:48:37.627Z,9.85
2022-10-11T23:51:06.311Z,9.87
2022-10-11T23:53:34.808Z,9.91
2022-10-11T23:56:03.990Z,9.96
2022-10-11T23:58:32.677Z,10.01
